createdAt,value
2018-02-20T00:01:50.542Z,65.31
2018-02-20T00:04:53.799Z,65.31
2018-02-20T00:07:57.191Z,65.52
2018-02-20T00:11:00.422Z,65.77
2018-02-20T00:14:03.749Z,65.84
2018-02-20T00:17:07.029Z,65.67
2018-02-20T00:20:10.337Z,65.80
2018-02-20T00:23:13.623Z,65.86
2018-02-20T00:26:16.860Z,66.61
2018-02-20T00:29:20.128Z,66.66
2018-02-20T00:32:23.365Z,66.48
2018-02-20T00:35:26.632Z,66.98
2018-02-20T00:38:29.906Z,67.03
2018-02-20T00:41:33.129Z,66.19
2018-02-20T00:44:36.523Z,65.67
2018-02-20T00:47:39.728Z,65.34
2018-02-20T00:50:42.985Z,64.74
2018-02-20T00:53:46.320Z,64.29
2018-02-20T00:56:49.524Z,64.13
2018-02-20T00:59:52.900Z,65.01
2018-02-20T01:02:56.322Z,64.76
2018-02-20T01:05:59.527Z,64.75
2018-02-20T01:09:02.806Z,64.94
2018-02-20T01:12:06.048Z,65.11
2018-02-20T01:15:09.316Z,65.11
2018-02-20T01:18:12.595Z,64.87
2018-02-20T01:21:15.873Z,64.89
2018-02-20T01:24:19.155Z,65.38
2018-02-20T01:27:22.446Z,66.21
2018-02-20T01:30:25.807Z,66.07
2018-02-20T01:33:29.059Z,66.45
2018-02-20T01:36:32.252Z,66.33
2018-02-20T01:39:35.552Z,66.68
2018-02-20T01:42:38.833Z,66.80
2018-02-20T01:45:42.164Z,66.97
2018-02-20T01:48:45.434Z,66.95
2018-02-20T01:51:49.010Z,66.64
2018-02-20T01:54:52.161Z,65.89
2018-02-20T01:57:55.496Z,65.19
2018-02-20T02:00:58.692Z,65.56
2018-02-20T02:04:02.054Z,65.45
2018-02-20T02:07:05.244Z,64.83
2018-02-20T02:10:08.533Z,64.91
2018-02-20T02:13:11.815Z,63.69
2018-02-20T02:16:15.075Z,64.21
2018-02-20T02:19:18.316Z,64.45
2018-02-20T02:22:21.671Z,64.64
2018-02-20T02:25:24.918Z,65.11
2018-02-20T02:28:29.355Z,64.72
2018-02-20T02:31:32.578Z,64.49
2018-02-20T02:34:35.789Z,64.58
2018-02-20T02:37:38.969Z,64.95
2018-02-20T02:40:42.182Z,64.94
2018-02-20T02:43:45.400Z,64.81
2018-02-20T02:46:48.710Z,65.15
2018-02-20T02:49:52.033Z,65.22
2018-02-20T02:52:55.350Z,64.92
2018-02-20T02:55:58.560Z,65.52
2018-02-20T02:59:01.746Z,66.00
2018-02-20T03:02:04.936Z,64.90
2018-02-20T03:05:08.196Z,65.42
2018-02-20T03:08:11.474Z,65.94
2018-02-20T03:11:14.784Z,66.07
2018-02-20T03:14:18.068Z,66.28
2018-02-20T03:17:21.384Z,66.21
2018-02-20T03:20:24.647Z,66.32
2018-02-20T03:23:27.995Z,66.56
2018-02-20T03:26:31.272Z,66.58
2018-02-20T03:29:34.573Z,66.90
2018-02-20T03:32:37.879Z,66.12
2018-02-20T03:35:41.179Z,66.04
2018-02-20T03:38:44.463Z,65.89
2018-02-20T03:41:47.639Z,66.20
2018-02-20T03:44:50.848Z,66.15
2018-02-20T03:47:54.159Z,66.24
2018-02-20T03:50:57.466Z,66.65
2018-02-20T03:54:00.780Z,66.35
2018-02-20T03:57:04.044Z,66.31
2018-02-20T04:00:07.257Z,65.76
2018-02-20T04:03:10.465Z,65.38
2018-02-20T04:06:13.623Z,65.05
2018-02-20T04:09:16.956Z,65.48
2018-02-20T04:12:20.214Z,65.32
2018-02-20T04:15:23.595Z,65.71
2018-02-20T04:18:27.042Z,65.38
2018-02-20T04:21:30.313Z,65.97
2018-02-20T04:24:33.648Z,66.18
2018-02-20T04:27:36.917Z,66.08
2018-02-20T04:30:40.162Z,65.82
2018-02-20T04:33:43.360Z,65.67
2018-02-20T04:36:46.526Z,65.77
2018-02-20T04:39:49.833Z,66.34
2018-02-20T04:42:53.051Z,66.34
2018-02-20T04:45:56.282Z,65.82
2018-02-20T04:48:59.521Z,65.67
2018-02-20T04:52:02.784Z,65.70
2018-02-20T04:55:06.068Z,65.28
2018-02-20T04:58:09.394Z,65.48
2018-02-20T05:01:12.830Z,65.93
2018-02-20T05:04:16.162Z,65.20
2018-02-20T05:07:19.428Z,64.81
2018-02-20T05:10:22.636Z,65.54
2018-02-20T05:13:25.862Z,65.37
2018-02-20T05:16:30.197Z,66.03
2018-02-20T05:19:33.502Z,66.33
2018-02-20T05:22:36.793Z,66.19
2018-02-20T05:25:40.129Z,66.01
2018-02-20T05:28:43.368Z,65.92
2018-02-20T05:31:46.590Z,66.24
2018-02-20T05:34:49.846Z,66.48
2018-02-20T05:37:53.080Z,66.61
2018-02-20T05:40:56.573Z,66.00
2018-02-20T05:43:59.856Z,66.48
2018-02-20T05:47:03.137Z,66.43
2018-02-20T05:50:06.538Z,66.62
2018-02-20T05:53:09.859Z,66.43
2018-02-20T05:56:13.146Z,66.45
2018-02-20T05:59:16.458Z,67.37
2018-02-20T06:02:19.752Z,68.34
2018-02-20T06:05:23.046Z,68.07
2018-02-20T06:08:26.608Z,67.41
2018-02-20T06:11:29.898Z,67.76
2018-02-20T06:14:33.202Z,67.90
2018-02-20T06:17:36.477Z,67.14
2018-02-20T06:20:39.695Z,66.76
2018-02-20T06:23:42.963Z,66.71
2018-02-20T06:26:46.245Z,67.26
2018-02-20T06:29:49.533Z,66.61
2018-02-20T06:32:52.826Z,66.98
2018-02-20T06:35:56.298Z,66.15
2018-02-20T06:38:59.583Z,67.16
2018-02-20T06:42:02.755Z,67.00
2018-02-20T06:45:06.011Z,67.43
2018-02-20T06:48:09.322Z,67.25
2018-02-20T06:51:12.600Z,67.24
2018-02-20T06:54:15.906Z,67.21
2018-02-20T06:57:19.127Z,67.11
2018-02-20T07:00:22.510Z,67.42
2018-02-20T07:03:25.782Z,67.32
2018-02-20T07:06:29.138Z,67.16
2018-02-20T07:09:32.310Z,67.25
2018-02-20T07:12:35.583Z,67.28
2018-02-20T07:15:38.811Z,67.05
2018-02-20T07:18:42.086Z,67.24
2018-02-20T07:21:45.388Z,67.27
2018-02-20T07:24:48.704Z,67.43
2018-02-20T07:27:51.963Z,67.42
2018-02-20T07:30:55.844Z,67.28
2018-02-20T07:33:59.008Z,68.54
2018-02-20T07:37:02.278Z,68.37
2018-02-20T07:40:05.508Z,67.49
2018-02-20T07:43:08.750Z,67.22
2018-02-20T07:46:11.958Z,66.96
2018-02-20T07:49:15.194Z,66.29
2018-02-20T07:52:18.562Z,66.07
2018-02-20T07:55:22.401Z,65.87
2018-02-20T07:58:26.248Z,65.26
2018-02-20T08:01:29.448Z,65.96
2018-02-20T08:04:32.752Z,66.78
2018-02-20T08:07:36.046Z,67.33
2018-02-20T08:10:39.397Z,66.88
2018-02-20T08:13:42.646Z,66.05
2018-02-20T08:16:45.989Z,66.29
2018-02-20T08:19:49.262Z,65.40
2018-02-20T08:22:52.555Z,64.05
2018-02-20T08:25:56.736Z,65.00
2018-02-20T08:28:59.910Z,65.68
2018-02-20T08:32:03.182Z,65.57
2018-02-20T08:35:06.431Z,64.62
2018-02-20T08:38:09.622Z,64.33
2018-02-20T08:41:12.898Z,63.00
2018-02-20T08:44:16.169Z,63.31
2018-02-20T08:47:19.403Z,62.17
2018-02-20T08:50:22.680Z,62.81
2018-02-20T08:53:26.343Z,62.78
2018-02-20T08:56:29.663Z,62.35
2018-02-20T08:59:32.907Z,62.81
2018-02-20T09:02:36.205Z,62.90
2018-02-20T09:05:39.447Z,63.42
2018-02-20T09:08:42.740Z,62.80
2018-02-20T09:11:46.041Z,62.45
2018-02-20T09:14:49.317Z,62.53
2018-02-20T09:17:52.629Z,60.73
2018-02-20T09:20:55.862Z,59.99
2018-02-20T09:23:59.118Z,60.46
2018-02-20T09:27:02.433Z,60.34
2018-02-20T09:30:05.770Z,59.78
2018-02-20T09:33:08.997Z,59.81
2018-02-20T09:36:12.315Z,59.42
2018-02-20T09:39:15.650Z,59.52
2018-02-20T09:42:18.906Z,59.76
2018-02-20T09:45:22.226Z,60.06
2018-02-20T09:48:25.506Z,59.86
2018-02-20T09:51:28.799Z,59.42
2018-02-20T09:54:32.144Z,58.31
2018-02-20T09:57:35.439Z,58.06
2018-02-20T10:00:38.695Z,57.42
2018-02-20T10:03:41.954Z,57.72
2018-02-20T10:06:45.134Z,58.05
2018-02-20T10:09:48.379Z,58.21
2018-02-20T10:12:51.620Z,57.79
2018-02-20T10:15:54.908Z,56.89
2018-02-20T10:18:58.287Z,56.75
2018-02-20T10:22:01.522Z,55.28
2018-02-20T10:25:04.807Z,55.79
2018-02-20T10:28:08.041Z,55.87
2018-02-20T10:31:12.386Z,55.73
2018-02-20T10:34:15.672Z,53.79
2018-02-20T10:37:19.048Z,54.85
2018-02-20T10:40:22.327Z,55.74
2018-02-20T10:43:25.525Z,56.00
2018-02-20T10:46:28.797Z,55.98
2018-02-20T10:49:32.005Z,55.31
2018-02-20T10:52:35.224Z,55.11
2018-02-20T10:55:38.440Z,55.21
2018-02-20T10:58:41.770Z,54.80
2018-02-20T11:01:45.053Z,55.64
2018-02-20T11:04:48.366Z,55.04
2018-02-20T11:07:51.715Z,54.38
2018-02-20T11:10:54.889Z,55.44
2018-02-20T11:13:58.139Z,54.99
2018-02-20T11:17:01.447Z,56.22
2018-02-20T11:20:04.734Z,55.02
2018-02-20T11:23:08.178Z,54.61
2018-02-20T11:26:11.482Z,53.67
2018-02-20T11:29:14.748Z,53.49
2018-02-20T11:32:18.055Z,53.34
2018-02-20T11:35:21.310Z,53.42
2018-02-20T11:38:24.617Z,53.24
2018-02-20T11:41:27.999Z,53.65
2018-02-20T11:44:31.306Z,53.00
2018-02-20T11:47:34.622Z,53.57
2018-02-20T11:50:37.914Z,53.53
2018-02-20T11:53:41.228Z,52.13
2018-02-20T11:56:44.654Z,53.75
2018-02-20T11:59:48.966Z,53.33
2018-02-20T12:02:52.181Z,52.47
2018-02-20T12:05:55.427Z,52.93
2018-02-20T12:08:58.732Z,52.98
2018-02-20T12:12:01.882Z,52.42
2018-02-20T12:15:05.074Z,52.12
2018-02-20T12:18:08.263Z,52.64
2018-02-20T12:21:11.554Z,52.47
2018-02-20T12:24:14.734Z,52.57
2018-02-20T12:27:18.012Z,51.79
2018-02-20T12:30:21.308Z,52.09
2018-02-20T12:33:24.604Z,52.84
2018-02-20T12:36:27.999Z,52.30
2018-02-20T12:39:31.592Z,51.86
2018-02-20T12:42:34.853Z,52.80
2018-02-20T12:45:38.063Z,52.67
2018-02-20T12:48:41.413Z,53.92
2018-02-20T12:51:44.702Z,52.98
2018-02-20T12:54:48.028Z,52.99
2018-02-20T12:57:51.234Z,53.03
2018-02-20T13:00:54.494Z,52.92
2018-02-20T13:03:57.803Z,53.39
2018-02-20T13:07:01.081Z,53.58
2018-02-20T13:10:04.319Z,53.16
2018-02-20T13:13:07.521Z,53.51
2018-02-20T13:16:10.802Z,54.38
2018-02-20T13:19:14.070Z,53.94
2018-02-20T13:22:17.364Z,53.62
2018-02-20T13:25:20.550Z,53.44
2018-02-20T13:28:23.825Z,53.12
2018-02-20T13:31:27.023Z,51.69
2018-02-20T13:34:30.242Z,51.96
2018-02-20T13:37:33.433Z,51.15
2018-02-20T13:40:36.698Z,51.18
2018-02-20T13:43:40.021Z,50.96
2018-02-20T13:46:43.288Z,50.00
2018-02-20T13:49:46.642Z,49.08
2018-02-20T13:52:49.922Z,49.60
2018-02-20T13:55:53.194Z,48.90
2018-02-20T13:58:57.187Z,49.53
2018-02-20T14:02:00.585Z,48.76
2018-02-20T14:05:03.871Z,49.52
2018-02-20T14:08:07.300Z,50.46
2018-02-20T14:11:10.517Z,50.27
2018-02-20T14:14:13.841Z,50.54
2018-02-20T14:17:17.115Z,50.37
2018-02-20T14:20:20.411Z,50.57
2018-02-20T14:23:23.707Z,51.01
2018-02-20T14:26:26.918Z,50.76
2018-02-20T14:29:30.166Z,50.61
2018-02-20T14:32:33.379Z,51.41
2018-02-20T14:35:36.733Z,50.58
2018-02-20T14:38:39.958Z,50.70
2018-02-20T14:41:43.189Z,50.88
2018-02-20T14:44:46.456Z,51.24
2018-02-20T14:47:49.890Z,51.17
2018-02-20T14:50:53.191Z,50.70
2018-02-20T14:53:56.667Z,50.29
2018-02-20T14:56:59.950Z,50.15
2018-02-20T15:00:03.351Z,49.69
2018-02-20T15:03:06.680Z,49.76
2018-02-20T15:06:09.913Z,50.01
2018-02-20T15:09:13.157Z,49.99
2018-02-20T15:12:16.487Z,50.59
2018-02-20T15:15:19.715Z,50.22
2018-02-20T15:18:22.965Z,50.83
2018-02-20T15:21:26.266Z,50.05
2018-02-20T15:24:29.434Z,50.44
2018-02-20T15:27:32.803Z,50.51
2018-02-20T15:30:36.043Z,50.97
2018-02-20T15:33:39.278Z,51.28
2018-02-20T15:36:42.546Z,51.59
2018-02-20T15:39:45.774Z,52.57
2018-02-20T15:42:48.985Z,55.15
2018-02-20T15:45:52.190Z,55.63
2018-02-20T15:48:55.443Z,56.11
2018-02-20T15:51:58.821Z,56.66
2018-02-20T15:55:03.863Z,56.84
2018-02-20T15:58:07.398Z,56.91
2018-02-20T16:01:10.685Z,56.52
2018-02-20T16:04:13.908Z,56.69
2018-02-20T16:07:17.095Z,56.67
2018-02-20T16:10:20.367Z,57.04
2018-02-20T16:13:23.657Z,56.92
2018-02-20T16:16:26.982Z,57.25
2018-02-20T16:19:30.261Z,57.44
2018-02-20T16:22:33.574Z,57.84
2018-02-20T16:25:36.855Z,58.02
2018-02-20T16:28:40.074Z,57.82
2018-02-20T16:31:43.329Z,57.84
2018-02-20T16:34:46.646Z,57.50
2018-02-20T16:37:50.043Z,57.76
2018-02-20T16:40:53.469Z,57.15
2018-02-20T16:43:56.747Z,57.20
2018-02-20T16:47:00.141Z,57.29
2018-02-20T16:50:03.742Z,56.58
2018-02-20T16:53:07.055Z,55.93
2018-02-20T16:56:10.302Z,54.71
2018-02-20T16:59:13.637Z,55.38
2018-02-20T17:02:17.400Z,55.67
2018-02-20T17:05:20.797Z,55.51
2018-02-20T17:08:23.947Z,54.80
2018-02-20T17:11:27.113Z,54.65
2018-02-20T17:14:30.423Z,55.00
2018-02-20T17:17:33.680Z,54.73
2018-02-20T17:20:36.965Z,54.49
2018-02-20T17:23:40.325Z,54.93
2018-02-20T17:26:43.665Z,54.72
2018-02-20T17:29:47.024Z,55.12
2018-02-20T17:32:50.309Z,54.73
2018-02-20T17:35:53.938Z,54.02
2018-02-20T17:38:57.236Z,54.45
2018-02-20T17:42:00.493Z,54.63
2018-02-20T17:45:03.785Z,54.41
2018-02-20T17:48:07.108Z,54.31
2018-02-20T17:51:10.330Z,54.60
2018-02-20T17:54:13.850Z,53.94
2018-02-20T17:57:17.198Z,53.40
2018-02-20T18:00:20.481Z,52.69
2018-02-20T18:03:23.778Z,52.77
2018-02-20T18:06:27.004Z,52.47
2018-02-20T18:09:30.331Z,52.55
2018-02-20T18:12:33.569Z,52.46
2018-02-20T18:15:36.982Z,52.35
2018-02-20T18:18:40.269Z,53.01
2018-02-20T18:21:43.566Z,53.48
2018-02-20T18:24:46.903Z,53.97
2018-02-20T18:27:50.166Z,52.95
2018-02-20T18:30:53.389Z,53.35
2018-02-20T18:33:56.802Z,53.24
2018-02-20T18:37:00.007Z,53.81
2018-02-20T18:40:03.585Z,53.68
2018-02-20T18:43:06.764Z,53.57
2018-02-20T18:46:10.325Z,53.99
2018-02-20T18:49:13.508Z,54.04
2018-02-20T18:52:16.923Z,54.17
2018-02-20T18:55:20.145Z,54.71
2018-02-20T18:58:23.408Z,54.35
2018-02-20T19:01:26.696Z,53.87
2018-02-20T19:04:30.079Z,53.76
2018-02-20T19:07:33.252Z,53.39
2018-02-20T19:10:36.549Z,53.48
2018-02-20T19:13:39.773Z,54.18
2018-02-20T19:16:42.959Z,54.34
2018-02-20T19:19:46.173Z,53.78
2018-02-20T19:22:49.497Z,53.76
2018-02-20T19:25:52.833Z,53.87
2018-02-20T19:28:56.054Z,53.95
2018-02-20T19:31:59.397Z,53.77
2018-02-20T19:35:02.702Z,53.40
2018-02-20T19:38:06.009Z,53.92
2018-02-20T19:41:09.358Z,54.46
2018-02-20T19:44:12.968Z,54.15
2018-02-20T19:47:16.289Z,52.74
2018-02-20T19:50:19.615Z,52.17
2018-02-20T19:53:22.911Z,52.82
2018-02-20T19:56:26.137Z,52.09
2018-02-20T19:59:29.411Z,52.81
2018-02-20T20:02:32.659Z,52.51
2018-02-20T20:05:35.982Z,52.40
2018-02-20T20:08:39.281Z,52.13
2018-02-20T20:11:42.602Z,51.18
2018-02-20T20:14:46.963Z,52.25
2018-02-20T20:17:50.235Z,52.20
2018-02-20T20:20:53.539Z,52.19
2018-02-20T20:23:56.808Z,51.31
2018-02-20T20:27:00.152Z,51.75
2018-02-20T20:30:03.491Z,51.34
2018-02-20T20:33:06.693Z,51.88
2018-02-20T20:36:11.014Z,51.47
2018-02-20T20:39:14.521Z,51.96
2018-02-20T20:42:17.807Z,52.06
2018-02-20T20:45:21.055Z,53.32
2018-02-20T20:48:24.324Z,53.53
2018-02-20T20:51:27.681Z,54.21
2018-02-20T20:54:30.919Z,54.11
2018-02-20T20:57:34.196Z,53.82
2018-02-20T21:00:38.272Z,54.04
2018-02-20T21:03:41.563Z,53.92
2018-02-20T21:06:45.486Z,54.26
2018-02-20T21:09:48.778Z,54.63
2018-02-20T21:12:51.935Z,54.70
2018-02-20T21:15:55.227Z,54.91
2018-02-20T21:18:58.448Z,55.00
2018-02-20T21:22:01.723Z,54.81
2018-02-20T21:25:04.998Z,54.73
2018-02-20T21:28:08.327Z,54.33
2018-02-20T21:31:11.614Z,54.49
2018-02-20T21:34:14.891Z,54.13
2018-02-20T21:37:18.204Z,54.23
2018-02-20T21:40:21.487Z,53.63
2018-02-20T21:43:25.366Z,53.29
2018-02-20T21:46:28.510Z,53.44
2018-02-20T21:49:32.126Z,53.70
2018-02-20T21:52:35.515Z,53.30
2018-02-20T21:55:38.810Z,52.63
2018-02-20T21:58:42.010Z,53.05
2018-02-20T22:01:45.295Z,52.55
2018-02-20T22:04:48.791Z,52.85
2018-02-20T22:07:52.024Z,52.62
2018-02-20T22:10:55.194Z,51.79
2018-02-20T22:13:58.476Z,52.61
2018-02-20T22:17:01.740Z,52.47
2018-02-20T22:20:04.994Z,52.65
2018-02-20T22:23:08.254Z,52.59
2018-02-20T22:26:11.484Z,53.06
2018-02-20T22:29:14.687Z,52.61
2018-02-20T22:32:18.138Z,52.96
2018-02-20T22:35:21.467Z,52.92
2018-02-20T22:38:24.749Z,52.96
2018-02-20T22:41:27.974Z,53.23
2018-02-20T22:44:31.126Z,53.38
2018-02-20T22:47:34.449Z,53.01
2018-02-20T22:50:37.650Z,52.97
2018-02-20T22:53:40.830Z,53.10
2018-02-20T22:56:44.189Z,53.28
2018-02-20T22:59:47.430Z,52.25
2018-02-20T23:02:50.743Z,53.27
2018-02-20T23:05:53.966Z,53.61
2018-02-20T23:08:57.193Z,53.66
2018-02-20T23:12:00.573Z,53.56
2018-02-20T23:15:03.855Z,53.81
2018-02-20T23:18:07.102Z,54.11
2018-02-20T23:21:10.524Z,54.50
2018-02-20T23:24:13.817Z,54.36
2018-02-20T23:27:17.258Z,54.72
2018-02-20T23:30:20.452Z,54.46
2018-02-20T23:33:23.694Z,54.21
2018-02-20T23:36:26.963Z,54.05
2018-02-20T23:39:30.097Z,53.85
2018-02-20T23:42:33.331Z,54.04
2018-02-20T23:46:39.735Z,54.08
2018-02-20T23:49:43.054Z,54.23
2018-02-20T23:52:46.333Z,54.58
2018-02-20T23:55:49.551Z,54.46
2018-02-20T23:58:52.697Z,54.43
